Terminal Aerodrome Forecast
Issued by NWS

Home | Current Version | Previous Version | Text Only | Print | Product List | Glossary On
Versions: 1 2 3 4 5 6 7 8 9 10 11 12 13 14 15 16 17
000
FTUS44 KMAF 220523
TAFINK
TAF
KINK 220523Z 2206/2306 07008KT P6SM SKC
      TEMPO 2210/2214 OVC006
     FM221800 12008KT P6SM SCT200=

USA.gov is the U.S. government's official web portal to all federal, state and local government web resources and services.